Time;durP1;ratioP1;P1;durP2;ratioP2;P2;SDS_P1;SDS_P2;PMS_P1;PMS_P2;Temp;Humidity;BMP_temperature;BMP_pressure;BME280_temperature;BME280_humidity;BME280_pressure;Samples;Min_cycle;Max_cycle;Signal;HPM_P1;HPM_P2
2021/08/28 00:02:12;;;;;;;18.70;14.73;;;;;;;18.97;57.94;94758.53;5114724;28;20032;-78
2021/08/28 00:04:38;;;;;;;18.15;14.85;;;;;;;18.86;58.68;94754.44;5114643;28;20042;-78
2021/08/28 00:07:03;;;;;;;19.70;15.82;;;;;;;18.77;59.07;94750.91;5096591;28;20027;-78
2021/08/28 00:09:28;;;;;;;19.58;15.70;;;;;;;18.67;58.79;94753.66;5082617;28;20203;-78
2021/08/28 00:11:54;;;;;;;17.88;15.25;;;;;;;18.63;59.29;94755.28;5123199;28;20032;-78
2021/08/28 00:14:19;;;;;;;18.92;15.40;;;;;;;18.60;59.51;94752.13;5121163;28;20092;-78
2021/08/28 00:16:45;;;;;;;18.48;14.63;;;;;;;18.57;59.49;94752.72;5122254;28;20031;-79
2021/08/28 00:19:10;;;;;;;17.90;15.20;;;;;;;18.55;59.72;94756.69;5119640;28;20054;-78
2021/08/28 00:21:36;;;;;;;17.88;15.23;;;;;;;18.59;59.72;94755.84;5121186;28;20031;-78
2021/08/28 00:24:02;;;;;;;18.45;15.90;;;;;;;18.64;59.52;94757.66;5117870;28;20038;-78
2021/08/28 00:26:30;;;;;;;19.67;15.32;;;;;;;18.70;58.98;94753.09;5121684;28;20096;-78
2021/08/28 00:29:02;;;;;;;20.23;14.88;;;;;;;18.72;58.98;94761.50;5122119;28;20526;-78
2021/08/28 00:31:27;;;;;;;21.17;14.50;;;;;;;18.77;58.81;94761.44;5122212;28;20030;-78
2021/08/28 00:33:52;;;;;;;21.63;15.27;;;;;;;18.77;58.54;94761.44;5106649;28;20044;-78
2021/08/28 00:36:18;;;;;;;16.83;14.25;;;;;;;18.75;58.54;94771.47;5067488;28;20036;-78
2021/08/28 00:38:43;;;;;;;22.17;14.18;;;;;;;18.66;58.79;94766.03;5117431;28;20032;-79
2021/08/28 00:41:09;;;;;;;19.85;14.85;;;;;;;18.65;58.86;94763.69;5099007;28;20054;-78
2021/08/28 00:43:34;;;;;;;16.58;14.65;;;;;;;18.64;58.94;94764.75;5065713;28;20035;-79
2021/08/28 00:45:59;;;;;;;19.27;14.23;;;;;;;18.57;58.94;94757.97;5116488;28;20475;-78
2021/08/28 00:48:25;;;;;;;17.35;14.13;;;;;;;18.44;58.98;94753.41;5117204;28;20032;-78
2021/08/28 00:50:50;;;;;;;18.48;13.93;;;;;;;18.36;59.16;94756.63;5117232;28;20084;-78
2021/08/28 00:53:16;;;;;;;17.33;14.00;;;;;;;18.29;59.64;94748.31;5098720;28;20057;-79
2021/08/28 00:55:49;;;;;;;17.60;13.90;;;;;;;18.26;59.59;94756.78;5081831;28;20028;-79
2021/08/28 00:58:15;;;;;;;20.27;14.82;;;;;;;18.26;59.55;94746.25;5081802;28;20099;-78
2021/08/28 01:00:41;;;;;;;18.75;14.00;;;;;;;18.20;59.67;94752.63;5081613;28;20058;-78
2021/08/28 01:03:07;;;;;;;18.02;13.93;;;;;;;18.17;59.95;94761.06;5098541;28;20042;-78
2021/08/28 01:05:50;;;;;;;18.70;14.10;;;;;;;18.16;60.18;94773.44;5081262;28;20032;-78
2021/08/28 01:08:21;;;;;;;17.75;13.80;;;;;;;18.18;59.90;94784.47;5116275;28;20085;-78
2021/08/28 01:10:51;;;;;;;17.88;14.48;;;;;;;18.15;59.85;94777.16;5081629;28;20066;-78
2021/08/28 01:13:17;;;;;;;19.38;14.35;;;;;;;18.08;60.32;94784.59;5081582;28;20035;-79
2021/08/28 01:15:43;;;;;;;16.42;13.60;;;;;;;18.03;60.46;94789.13;5081099;28;20422;-79
2021/08/28 01:18:09;;;;;;;23.55;14.65;;;;;;;17.97;60.78;94797.06;5081593;28;20055;-78
2021/08/28 01:20:39;;;;;;;21.52;14.82;;;;;;;17.97;60.16;94786.53;5098234;28;20058;-79
2021/08/28 01:23:05;;;;;;;21.58;15.65;;;;;;;17.94;60.63;94781.06;5080993;28;20448;-78
2021/08/28 01:25:31;;;;;;;18.85;14.40;;;;;;;17.92;60.45;94778.72;5116496;28;20375;-78
2021/08/28 01:28:04;;;;;;;22.15;14.80;;;;;;;17.91;60.70;94781.63;5080390;28;20027;-79
2021/08/28 01:30:30;;;;;;;19.83;14.80;;;;;;;17.93;60.79;94775.00;5099270;28;20040;-78
2021/08/28 01:32:55;;;;;;;19.95;14.82;;;;;;;17.91;60.69;94756.09;5080970;28;20081;-79
2021/08/28 01:35:21;;;;;;;18.35;13.93;;;;;;;17.90;60.49;94764.28;5097891;28;20031;-79
2021/08/28 01:37:47;;;;;;;19.52;13.77;;;;;;;17.86;60.56;94774.53;5098286;28;20153;-79
2021/08/28 01:40:13;;;;;;;18.17;14.18;;;;;;;17.84;60.79;94776.66;5064489;28;20073;-78
2021/08/28 01:42:38;;;;;;;20.70;14.40;;;;;;;17.88;60.68;94766.38;5097964;28;20063;-78
2021/08/28 01:45:04;;;;;;;20.08;14.05;;;;;;;17.88;60.63;94767.16;5079939;28;20128;-78
2021/08/28 01:47:30;;;;;;;17.52;13.00;;;;;;;17.93;60.41;94771.59;5116077;28;20571;-79
2021/08/28 01:49:55;;;;;;;17.65;13.82;;;;;;;17.97;60.09;94768.13;5080690;28;20524;-78
2021/08/28 01:52:21;;;;;;;21.13;14.02;;;;;;;17.97;59.91;94760.22;5080227;28;20042;-78
2021/08/28 01:54:49;;;;;;;17.13;13.15;;;;;;;18.04;60.12;94767.00;5063858;28;20034;-79
2021/08/28 01:57:14;;;;;;;22.00;13.43;;;;;;;18.09;59.61;94759.06;5081310;28;20034;-79
2021/08/28 01:59:40;;;;;;;16.55;13.85;;;;;;;18.10;59.38;94758.00;5081332;28;20027;-79
2021/08/28 02:02:05;;;;;;;17.17;13.48;;;;;;;18.16;59.73;94767.41;5115860;28;20603;-79
2021/08/28 02:04:35;;;;;;;19.15;14.85;;;;;;;18.21;59.23;94762.06;5079790;28;20027;-79
2021/08/28 02:07:07;;;;;;;20.55;13.95;;;;;;;18.22;58.82;94761.00;5115103;28;20051;-78
2021/08/28 02:09:56;;;;;;;16.77;12.77;;;;;;;18.24;59.08;94756.28;5080897;28;20028;-79
2021/08/28 02:15:07;;;;;;;15.02;12.80;;;;;;;18.28;58.57;94759.91;5102900;22;20055;-78
2021/08/28 02:17:34;;;;;;;15.77;12.27;;;;;;;18.32;58.59;94758.28;5098885;28;20054;-78
2021/08/28 02:20:06;;;;;;;18.08;13.70;;;;;;;18.30;58.66;94753.28;5097866;28;20032;-78
2021/08/28 02:22:39;;;;;;;17.95;13.20;;;;;;;18.29;58.58;94761.47;5063869;28;20024;-77
2021/08/28 02:25:16;;;;;;;19.77;13.60;;;;;;;18.32;58.70;94755.63;5114503;28;20043;-79
2021/08/28 02:27:49;;;;;;;18.50;13.60;;;;;;;18.33;59.03;94751.94;5063087;28;20039;-79
2021/08/28 02:30:16;;;;;;;18.33;13.70;;;;;;;18.36;58.99;94755.84;5076954;28;20024;-79
2021/08/28 02:32:41;;;;;;;16.20;13.32;;;;;;;18.38;58.69;94772.94;5077187;28;20032;-79
2021/08/28 02:35:08;;;;;;;18.42;13.65;;;;;;;18.41;58.96;94767.13;5059770;28;20031;-78
2021/08/28 02:37:36;;;;;;;18.80;13.77;;;;;;;18.44;58.45;94771.03;5060726;28;20039;-79
2021/08/28 02:40:04;;;;;;;18.38;13.30;;;;;;;18.48;58.28;94764.94;5058946;28;20099;-78
2021/08/28 02:42:29;;;;;;;21.98;13.57;;;;;;;18.54;58.27;94769.06;5075970;28;20112;-79
2021/08/28 02:44:55;;;;;;;20.63;14.25;;;;;;;18.57;58.44;94775.63;5060306;28;20024;-79
2021/08/28 02:47:21;;;;;;;24.92;13.30;;;;;;;18.57;58.11;94760.63;5076907;28;20047;-79
2021/08/28 02:49:46;;;;;;;15.63;13.68;;;;;;;18.57;58.04;94763.25;5075884;28;20039;-79
2021/08/28 02:52:12;;;;;;;20.95;14.45;;;;;;;18.59;58.51;94765.59;5076896;28;20036;-79
2021/08/28 02:54:38;;;;;;;18.80;13.50;;;;;;;18.64;57.68;94770.03;5060215;28;20043;-79
2021/08/28 02:57:04;;;;;;;16.30;12.82;;;;;;;18.68;57.76;94765.75;5059276;28;20407;-78
2021/08/28 02:59:29;;;;;;;16.08;13.93;;;;;;;18.70;57.80;94759.13;5075177;28;20036;-78
2021/08/28 03:01:55;;;;;;;14.82;13.07;;;;;;;18.67;57.89;94762.34;5076522;28;20024;-78
2021/08/28 03:04:22;;;;;;;15.55;13.68;;;;;;;18.74;57.67;94772.56;5076283;28;20032;-78
2021/08/28 03:06:47;;;;;;;19.65;13.60;;;;;;;18.74;57.80;94769.91;5059858;28;20028;-78
2021/08/28 03:09:14;;;;;;;17.50;13.50;;;;;;;18.75;57.41;94774.13;5076808;28;20032;-78
2021/08/28 03:11:39;;;;;;;23.80;13.77;;;;;;;18.80;57.16;94771.41;5059992;28;20039;-79
2021/08/28 03:14:05;;;;;;;23.17;13.18;;;;;;;18.82;57.63;94769.25;5076270;28;20032;-79
2021/08/28 03:16:30;;;;;;;21.33;13.52;;;;;;;18.83;57.39;94768.19;5075318;28;20023;-79
2021/08/28 03:18:56;;;;;;;18.25;13.23;;;;;;;18.87;57.23;94777.91;5076006;28;20032;-79
2021/08/28 03:21:28;;;;;;;21.63;13.88;;;;;;;18.88;57.25;94773.41;5093794;28;20058;-78
2021/08/28 03:23:56;;;;;;;16.25;13.23;;;;;;;18.85;57.29;94772.13;5076096;28;20482;-79
2021/08/28 03:26:21;;;;;;;16.40;12.60;;;;;;;18.84;57.26;94777.66;5062205;28;20035;-78
2021/08/28 03:28:47;;;;;;;21.15;13.63;;;;;;;18.86;57.15;94780.78;5047098;28;20126;-79
2021/08/28 03:31:13;;;;;;;22.13;15.30;;;;;;;18.93;57.14;94775.97;5059924;28;20603;-79
2021/08/28 03:33:38;;;;;;;18.17;14.13;;;;;;;19.01;56.34;94783.22;5076452;28;20032;-79
2021/08/28 03:36:03;;;;;;;;;;;;;;;18.99;56.95;94790.63;5076665;28;20028;-79
2021/08/28 03:38:29;;;;;;;17.75;13.65;;;;;;;18.97;56.67;94784.88;5093821;28;19923;-78
2021/08/28 03:40:54;;;;;;;15.20;13.55;;;;;;;18.94;57.06;94784.66;5091878;28;20032;-79
2021/08/28 03:43:20;;;;;;;21.63;13.50;;;;;;;18.97;56.80;94779.59;5093412;28;20032;-79
2021/08/28 03:45:47;;;;;;;;;;;;;;;18.93;56.69;94778.59;5094631;28;20040;-79
2021/08/28 03:48:13;;;;;;;20.50;13.25;;;;;;;18.87;56.98;94785.00;5059297;28;20284;-78
2021/08/28 03:50:38;;;;;;;22.30;13.70;;;;;;;18.88;57.05;94799.75;5058682;28;20035;-79
2021/08/28 03:53:03;;;;;;;23.75;13.93;;;;;;;18.87;56.98;94792.91;5094070;28;20541;-79
2021/08/28 03:55:29;;;;;;;21.38;13.90;;;;;;;18.88;57.38;94789.22;5094153;28;20028;-78
2021/08/28 03:57:54;;;;;;;20.25;14.20;;;;;;;18.87;57.30;94787.63;5093974;28;20032;-79
2021/08/28 04:02:58;;;;;;;18.98;16.23;;;;;;;18.92;57.01;94784.94;5125689;22;20054;-79
2021/08/28 04:05:23;;;;;;;23.00;16.77;;;;;;;18.93;56.85;94794.41;5114876;28;20028;-78
2021/08/28 04:07:49;;;;;;;26.50;18.08;;;;;;;18.88;56.77;94794.50;5112705;28;20023;-79
2021/08/28 04:10:14;;;;;;;28.30;17.83;;;;;;;18.88;56.93;94795.28;5114582;28;20024;-78
2021/08/28 04:12:40;;;;;;;26.23;16.58;;;;;;;18.84;57.31;94788.22;5113573;28;20126;-78
2021/08/28 04:15:06;;;;;;;20.75;17.02;;;;;;;18.84;57.48;94793.47;5114768;28;20063;-79
2021/08/28 04:17:31;;;;;;;31.02;18.90;;;;;;;18.88;57.14;94791.88;5113054;28;20039;-78
2021/08/28 04:19:56;;;;;;;36.85;22.77;;;;;;;18.89;57.04;94796.06;5114323;28;20023;-78
2021/08/28 04:22:22;;;;;;;28.55;21.15;;;;;;;18.87;57.18;94803.44;5114120;28;20031;-79
2021/08/28 04:24:53;;;;;;;25.17;15.55;;;;;;;18.90;56.97;94805.53;5114154;28;20028;-78
2021/08/28 04:27:18;;;;;;;17.02;14.05;;;;;;;18.95;57.00;94800.19;5114196;28;20028;-79
2021/08/28 04:29:44;;;;;;;22.38;13.60;;;;;;;18.99;56.37;94795.13;5114278;28;20031;-78
2021/08/28 04:32:09;;;;;;;16.40;13.65;;;;;;;19.00;56.03;94799.31;5113681;28;20028;-79
2021/08/28 04:34:35;;;;;;;19.30;13.27;;;;;;;19.07;56.13;94802.41;5078967;28;20081;-78
2021/08/28 04:37:00;;;;;;;16.38;13.18;;;;;;;19.13;55.89;94796.78;5095655;28;20061;-79
2021/08/28 04:39:26;;;;;;;19.00;13.00;;;;;;;19.24;55.76;94794.00;5094196;28;20487;-79
2021/08/28 04:41:51;;;;;;;25.80;14.50;;;;;;;19.30;55.76;94791.00;5110468;28;20028;-78
2021/08/28 04:44:16;;;;;;;16.35;13.15;;;;;;;19.47;55.59;94793.09;5122415;22;20036;-79
2021/08/28 04:46:42;;;;;;;19.30;13.55;;;;;;;19.66;54.61;94809.69;5093383;28;20036;-79
2021/08/28 04:49:07;;;;;;;17.83;13.70;;;;;;;19.79;54.77;94811.59;5093544;28;20024;-78
2021/08/28 04:51:33;;;;;;;18.35;13.25;;;;;;;19.89;53.78;94810.66;5075638;28;20024;-79
2021/08/28 04:53:58;;;;;;;19.55;13.82;;;;;;;19.97;53.72;94806.56;5059075;28;20028;-78
2021/08/28 04:56:23;;;;;;;22.77;13.27;;;;;;;20.04;53.31;94799.06;5093931;28;20492;-79
2021/08/28 04:58:52;;;;;;;21.35;13.35;;;;;;;20.14;52.94;94803.38;5075906;28;20518;-79
2021/08/28 05:01:18;;;;;;;19.48;13.65;;;;;;;20.81;51.38;94790.47;5059193;28;20032;-79
2021/08/28 05:03:43;;;;;;;18.58;12.80;;;;;;;21.44;49.66;94793.06;5059463;28;20024;-79
2021/08/28 05:06:10;;;;;;;18.63;12.82;;;;;;;21.59;48.99;94791.94;5094301;28;20039;-79
2021/08/28 05:08:35;;;;;;;15.75;12.77;;;;;;;21.76;48.59;94799.19;5094469;28;20111;-79
2021/08/28 05:11:02;;;;;;;20.42;12.68;;;;;;;22.21;47.55;94793.88;5059287;28;20110;-79
2021/08/28 05:13:27;;;;;;;16.83;12.32;;;;;;;23.55;43.90;94801.94;5096311;28;20027;-79
2021/08/28 05:15:56;;;;;;;16.58;11.93;;;;;;;25.41;40.12;94802.19;5063339;28;20031;-79
2021/08/28 05:18:21;;;;;;;17.92;11.45;;;;;;;26.99;36.19;94798.28;5080316;28;20035;-79
2021/08/28 05:20:47;;;;;;;14.98;11.23;;;;;;;28.43;33.70;94796.53;5078854;28;20203;-79
2021/08/28 05:23:12;;;;;;;14.00;10.82;;;;;;;29.73;31.76;94795.22;5092498;28;20035;-78
2021/08/28 05:25:37;;;;;;;14.07;10.52;;;;;;;30.96;29.93;94792.38;5098220;28;20035;-79
2021/08/28 05:28:03;;;;;;;16.38;9.90;;;;;;;32.08;27.26;94798.03;5096244;28;20020;-79
2021/08/28 05:30:35;;;;;;;10.90;9.80;;;;;;;33.10;25.89;94797.34;5078757;28;20477;-78
2021/08/28 05:33:15;;;;;;;13.25;9.48;;;;;;;34.11;24.72;94791.25;5094766;28;20028;-79
2021/08/28 05:35:47;;;;;;;16.60;9.60;;;;;;;34.97;23.51;94784.75;5097090;28;20052;-79
2021/08/28 05:38:15;;;;;;;11.00;9.05;;;;;;;35.92;22.51;94782.16;5094922;28;20559;-79
2021/08/28 05:40:56;;;;;;;10.63;9.52;;;;;;;36.61;21.44;94784.03;5076726;28;20028;-77
2021/08/28 05:43:22;;;;;;;10.57;8.82;;;;;;;37.24;21.00;94790.06;5074815;28;20024;-78
2021/08/28 05:45:47;;;;;;;10.88;9.27;;;;;;;37.81;20.41;94786.75;5071044;28;20054;-78
2021/08/28 05:48:13;;;;;;;12.05;9.35;;;;;;;38.38;19.70;94794.09;5092846;28;20043;-78
2021/08/28 05:50:38;;;;;;;12.77;9.13;;;;;;;38.61;18.97;94785.22;5090220;28;20028;-78
2021/08/28 05:53:03;;;;;;;12.52;9.18;;;;;;;38.74;18.67;94780.78;5092761;28;20058;-78
2021/08/28 05:55:29;;;;;;;13.00;8.93;;;;;;;38.72;18.80;94777.66;5090393;28;20020;-78
2021/08/28 05:57:54;;;;;;;13.80;8.90;;;;;;;38.64;18.96;94781.69;5093047;28;20024;-77
2021/08/28 06:00:20;;;;;;;12.85;8.50;;;;;;;38.17;19.09;94794.41;5095836;28;20032;-76
2021/08/28 06:02:45;;;;;;;10.40;8.68;;;;;;;37.25;20.02;94788.88;5095076;28;20407;-77
2021/08/28 06:05:11;;;;;;;11.07;8.45;;;;;;;36.62;21.41;94785.59;5095210;28;20028;-77
2021/08/28 06:07:37;;;;;;;10.77;8.18;;;;;;;36.10;21.68;94774.69;5095709;28;20036;-77
2021/08/28 06:10:03;;;;;;;9.40;8.45;;;;;;;35.71;22.05;94788.44;5046135;28;20564;-77
2021/08/28 06:12:28;;;;;;;11.63;8.25;;;;;;;35.04;22.94;94784.75;5077106;28;20035;-76
2021/08/28 06:14:57;;;;;;;12.32;9.32;;;;;;;34.30;23.23;94770.06;5043784;28;20407;-77
2021/08/28 06:17:22;;;;;;;9.80;8.80;;;;;;;33.73;24.54;94779.94;5076509;28;20100;-77
2021/08/28 06:19:48;;;;;;;12.52;8.95;;;;;;;33.29;25.34;94772.03;5076363;28;20020;-77
2021/08/28 06:22:13;;;;;;;12.98;9.38;;;;;;;33.11;25.42;94777.34;5060118;28;20076;-78
2021/08/28 06:24:41;;;;;;;13.18;9.13;;;;;;;32.87;25.93;94769.88;5098515;28;20573;-77
2021/08/28 06:27:10;;;;;;;16.17;8.90;;;;;;;32.69;25.95;94770.50;5102574;28;20567;-77
2021/08/28 06:29:36;;;;;;;9.95;8.90;;;;;;;32.42;26.05;94763.75;5069519;28;20057;-77
2021/08/28 06:32:08;;;;;;;14.25;9.38;;;;;;;32.17;26.84;94758.88;5087456;28;20032;-77
2021/08/28 06:34:36;;;;;;;;;;;;;;;31.39;27.99;94752.66;5095560;28;20019;-77
2021/08/28 06:37:02;;;;;;;12.30;9.75;;;;;;;30.74;29.35;94751.00;5073696;28;20035;-77
2021/08/28 06:39:27;;;;;;;10.18;9.18;;;;;;;30.73;28.96;94749.47;5057218;28;20050;-77
2021/08/28 06:41:53;;;;;;;11.90;9.32;;;;;;;30.69;28.64;94747.88;5075845;28;20032;-80
2021/08/28 06:44:18;;;;;;;10.30;9.25;;;;;;;30.44;30.03;94753.63;5057879;28;20032;-79
2021/08/28 06:46:44;;;;;;;15.82;10.48;;;;;;;30.51;29.63;94746.78;5058447;28;20036;-77
2021/08/28 06:49:09;;;;;;;10.68;9.63;;;;;;;30.59;29.54;94751.13;5076421;28;20043;-78
2021/08/28 06:51:35;;;;;;;16.25;9.60;;;;;;;30.74;29.64;94745.63;5095246;28;20024;-78
2021/08/28 06:54:00;;;;;;;15.85;10.82;;;;;;;30.62;29.32;94753.13;5065742;22;20053;-78
2021/08/28 06:56:26;;;;;;;13.60;10.52;;;;;;;29.74;30.88;94753.91;5091697;28;20059;-77
2021/08/28 06:58:51;;;;;;;15.25;10.48;;;;;;;29.67;31.70;94747.66;5092657;28;20495;-79
2021/08/28 07:01:17;;;;;;;18.95;11.23;;;;;;;29.82;31.01;94747.56;5078841;28;20028;-80
2021/08/28 07:03:42;;;;;;;14.25;11.50;;;;;;;29.96;31.12;94743.56;5093451;28;20035;-78
2021/08/28 07:06:08;;;;;;;23.05;11.10;;;;;;;30.04;30.76;94745.25;5057288;28;20480;-79
2021/08/28 07:08:33;;;;;;;14.32;11.02;;;;;;;30.02;30.95;94742.91;5076316;28;20461;-80
2021/08/28 07:10:59;;;;;;;15.10;10.18;;;;;;;30.14;31.79;94752.72;5093564;28;20016;-77
2021/08/28 07:13:26;;;;;;;10.25;9.25;;;;;;;30.34;30.93;94748.06;5094681;28;20043;-78
2021/08/28 07:15:51;;;;;;;11.88;10.68;;;;;;;30.40;30.53;94757.34;5093799;28;20410;-78
2021/08/28 07:18:17;;;;;;;12.50;10.30;;;;;;;30.52;30.40;94753.72;5094200;28;20059;-78
2021/08/28 07:20:42;;;;;;;14.43;8.70;;;;;;;30.72;30.51;94742.53;5059430;28;20088;-78
2021/08/28 07:23:08;;;;;;;14.38;10.40;;;;;;;30.90;30.27;94742.00;5060157;28;20058;-78
2021/08/28 07:25:37;;;;;;;12.63;10.38;;;;;;;30.99;30.21;94746.00;5075778;28;20075;-78
2021/08/28 07:28:06;;;;;;;12.10;10.02;;;;;;;30.93;29.64;94742.09;5060979;28;20081;-79
2021/08/28 07:30:31;;;;;;;16.83;10.63;;;;;;;30.88;29.73;94736.25;5093280;28;20035;-79
2021/08/28 07:32:56;;;;;;;12.48;10.35;;;;;;;30.77;30.38;94744.16;5059633;28;20020;-78
2021/08/28 07:35:22;;;;;;;21.33;10.88;;;;;;;30.80;30.64;94748.81;5058354;28;20036;-78
2021/08/28 07:37:47;;;;;;;21.80;10.40;;;;;;;30.81;29.85;94750.34;5042883;28;20024;-78
2021/08/28 07:40:13;;;;;;;14.02;10.50;;;;;;;30.84;30.10;94741.56;5092427;28;20027;-78
2021/08/28 07:42:38;;;;;;;14.50;10.30;;;;;;;30.69;30.77;94731.75;5100284;22;20183;-77
2021/08/28 07:45:04;;;;;;;15.52;10.20;;;;;;;30.46;31.28;94729.88;5097369;28;20035;-77
2021/08/28 07:47:30;;;;;;;18.48;10.65;;;;;;;30.24;31.05;94722.59;5114350;28;20036;-78
2021/08/28 07:49:55;;;;;;;23.08;10.80;;;;;;;30.11;30.99;94723.94;5115085;28;20392;-78
2021/08/28 07:52:21;;;;;;;13.98;10.57;;;;;;;29.76;31.66;94719.47;5113904;28;20028;-78
2021/08/28 07:54:46;;;;;;;16.02;10.77;;;;;;;29.52;32.13;94709.84;5114463;28;20032;-78
2021/08/28 07:57:12;;;;;;;13.30;11.90;;;;;;;29.53;32.73;94706.03;5114313;28;20027;-78
2021/08/28 07:59:37;;;;;;;19.42;11.75;;;;;;;29.52;32.58;94714.44;5095996;28;20024;-78
2021/08/28 08:02:03;;;;;;;21.83;12.30;;;;;;;29.47;32.36;94706.69;5079634;28;20024;-78
2021/08/28 08:04:28;;;;;;;17.60;11.95;;;;;;;29.33;32.90;94711.75;5114099;28;20032;-78
2021/08/28 08:06:53;;;;;;;21.25;11.02;;;;;;;29.37;32.63;94704.56;5078698;28;20028;-79
2021/08/28 08:09:19;;;;;;;14.27;11.55;;;;;;;29.42;32.35;94702.34;5094439;28;20158;-77
2021/08/28 08:11:48;;;;;;;17.83;11.98;;;;;;;29.35;32.88;94690.75;5111087;28;20024;-78
2021/08/28 08:14:13;;;;;;;16.90;10.50;;;;;;;29.43;33.10;94700.44;5110120;28;20110;-78
2021/08/28 08:16:39;;;;;;;14.13;11.52;;;;;;;29.49;33.20;94699.84;5095261;28;20042;-78
2021/08/28 08:19:05;;;;;;;16.83;10.82;;;;;;;29.57;33.01;94695.38;5111495;28;20028;-79
2021/08/28 08:21:30;;;;;;;19.80;11.60;;;;;;;29.63;32.38;94699.34;5113539;28;20414;-78
2021/08/28 08:23:56;;;;;;;15.27;11.98;;;;;;;29.57;32.92;94700.75;5113139;28;20145;-79
2021/08/28 08:26:21;;;;;;;19.00;11.15;;;;;;;29.53;33.30;94697.22;5113570;28;20031;-79
2021/08/28 08:28:46;;;;;;;17.80;11.95;;;;;;;28.84;33.82;94686.28;5112859;28;20056;-78
2021/08/28 08:31:12;;;;;;;15.93;11.02;;;;;;;28.66;34.75;94691.25;5061281;28;20430;-78
2021/08/28 08:33:38;;;;;;;15.40;11.80;;;;;;;28.60;34.62;94687.28;5061260;28;20064;-78
2021/08/28 08:36:04;;;;;;;12.93;11.27;;;;;;;28.63;34.72;94686.56;5095279;28;20024;-78
2021/08/28 08:38:29;;;;;;;18.42;11.18;;;;;;;28.63;34.86;94665.16;5113081;28;20039;-78
2021/08/28 08:40:55;;;;;;;17.13;11.68;;;;;;;28.68;34.91;94662.22;5078226;28;20020;-79
2021/08/28 08:43:20;;;;;;;18.02;12.20;;;;;;;28.66;34.80;94656.47;5062871;28;20124;-79
2021/08/28 08:45:46;;;;;;;22.52;12.88;;;;;;;28.48;34.74;94657.22;5096443;28;20036;-79
2021/08/28 08:48:12;;;;;;;18.40;12.45;;;;;;;28.32;35.16;94659.91;5116807;28;20124;-79
2021/08/28 08:50:38;;;;;;;21.48;11.93;;;;;;;28.40;34.93;94657.03;5101162;28;20088;-78
2021/08/28 08:53:04;;;;;;;24.63;12.18;;;;;;;28.38;34.93;94642.47;5120012;28;20031;-79
2021/08/28 08:55:30;;;;;;;13.85;12.32;;;;;;;28.31;35.28;94631.59;5119131;28;20164;-79
2021/08/28 08:57:56;;;;;;;19.95;12.80;;;;;;;27.93;35.64;94638.34;5119710;28;20020;-79
2021/08/28 09:00:21;;;;;;;16.13;12.38;;;;;;;27.83;35.97;94635.44;5119215;28;20035;-79
2021/08/28 09:02:47;;;;;;;20.85;13.45;;;;;;;27.90;36.17;94632.94;5119451;28;20030;-79
2021/08/28 09:05:12;;;;;;;23.65;12.07;;;;;;;28.01;36.90;94624.03;5098596;28;20222;-79
2021/08/28 09:07:37;;;;;;;27.33;12.77;;;;;;;27.92;36.56;94636.03;5100912;28;20028;-79
2021/08/28 09:10:03;;;;;;;16.50;12.68;;;;;;;27.91;35.99;94624.56;5117449;28;20038;-79
2021/08/28 09:12:39;;;;;;;15.77;12.63;;;;;;;27.77;36.96;94619.66;5118533;28;20043;-79
2021/08/28 09:15:05;;;;;;;20.25;12.95;;;;;;;27.81;37.07;94617.81;5118325;28;20042;-78
2021/08/28 09:17:31;;;;;;;16.52;12.32;;;;;;;27.92;36.35;94618.09;5118650;28;20114;-79
2021/08/28 09:20:18;;;;;;;25.38;14.48;;;;;;;28.05;36.69;94619.53;5136681;22;20055;-79
2021/08/28 09:22:43;;;;;;;17.88;13.48;;;;;;;27.99;36.38;94615.59;5081423;28;20510;-79
2021/08/28 09:25:09;;;;;;;20.45;12.63;;;;;;;28.05;36.96;94613.44;5098115;28;20408;-79
2021/08/28 09:27:45;;;;;;;17.70;12.30;;;;;;;28.05;36.85;94592.81;5097072;28;20085;-79
2021/08/28 09:30:20;;;;;;;22.02;12.35;;;;;;;28.09;36.54;94593.66;5098452;28;20115;-79
2021/08/28 09:32:51;;;;;;;18.98;13.25;;;;;;;28.09;36.93;94596.34;5096943;28;20027;-79
2021/08/28 09:35:17;;;;;;;24.38;13.95;;;;;;;28.00;36.97;94593.09;5098080;28;20065;-79
2021/08/28 09:37:58;;;;;;;19.15;12.80;;;;;;;28.09;37.41;94576.84;5098466;28;20028;-79
2021/08/28 09:40:29;;;;;;;18.17;13.23;;;;;;;28.15;36.98;94580.00;5079949;28;20100;-79
2021/08/28 09:43:01;;;;;;;24.25;14.05;;;;;;;28.22;37.10;94580.19;5063967;28;20150;-79
2021/08/28 09:45:26;;;;;;;29.17;13.63;;;;;;;28.27;36.81;94571.91;5098140;28;20372;-79
2021/08/28 09:47:53;;;;;;;17.52;13.45;;;;;;;28.14;37.05;94557.84;5080346;28;20028;-79
2021/08/28 09:50:26;;;;;;;19.15;13.77;;;;;;;28.16;37.36;94570.91;5079406;28;20078;-79
2021/08/28 09:52:51;;;;;;;20.98;14.27;;;;;;;28.19;37.40;94564.84;5097732;28;20051;-78
2021/08/28 09:55:19;;;;;;;22.30;13.90;;;;;;;28.16;37.61;94560.22;5098110;28;20092;-79
2021/08/28 09:57:48;;;;;;;21.38;13.43;;;;;;;28.20;37.98;94563.72;5051477;22;20088;-79
2021/08/28 10:02:40;;;;;;;18.58;13.85;;;;;;;28.29;38.69;94548.28;5160161;22;20104;-79
2021/08/28 10:05:09;;;;;;;19.73;13.40;;;;;;;28.36;38.18;94540.41;5099985;28;20059;-79
2021/08/28 10:07:34;;;;;;;18.67;13.85;;;;;;;28.46;37.60;94541.72;5083576;28;20020;-80
2021/08/28 10:10:02;;;;;;;24.73;14.90;;;;;;;28.51;37.02;94536.91;5118490;22;20052;-79
2021/08/28 10:12:28;;;;;;;20.92;13.85;;;;;;;28.59;37.66;94541.25;5077514;28;20028;-79
2021/08/28 10:14:55;;;;;;;24.83;15.13;;;;;;;28.72;37.06;94538.44;5060336;28;20035;-79
2021/08/28 10:17:21;;;;;;;16.70;13.57;;;;;;;28.89;37.10;94535.34;5077089;28;20024;-79
2021/08/28 10:19:49;;;;;;;22.33;14.13;;;;;;;29.05;36.54;94536.03;5077836;28;20028;-79
2021/08/28 10:22:14;;;;;;;21.85;14.50;;;;;;;29.13;36.46;94532.34;5056532;28;20025;-79
2021/08/28 10:24:41;;;;;;;19.23;13.13;;;;;;;29.26;37.01;94527.56;5059516;28;20078;-79
2021/08/28 10:27:06;;;;;;;22.83;14.48;;;;;;;29.35;36.61;94532.72;5076039;28;20036;-79
2021/08/28 10:29:32;;;;;;;28.50;16.98;;;;;;;29.36;36.24;94527.00;5059504;28;20040;-79
2021/08/28 10:31:57;;;;;;;26.63;15.18;;;;;;;29.40;36.35;94521.69;5077568;28;20021;-79
2021/08/28 10:34:22;;;;;;;20.80;14.77;;;;;;;29.50;36.77;94523.81;5066234;28;20021;-79
2021/08/28 10:36:48;;;;;;;22.10;14.50;;;;;;;29.58;36.38;94515.50;5065478;28;20446;-79
2021/08/28 10:39:14;;;;;;;19.98;15.35;;;;;;;29.58;36.08;94514.72;5080960;28;20492;-79
2021/08/28 10:41:39;;;;;;;22.90;15.25;;;;;;;29.21;37.02;94512.59;5059522;28;20059;-79
2021/08/28 10:44:04;;;;;;;26.10;16.77;;;;;;;28.33;38.45;94511.69;5066511;22;20562;-79
2021/08/28 10:46:30;;;;;;;21.13;15.75;;;;;;;28.04;38.92;94511.06;5137879;22;20040;-79
2021/08/28 10:48:59;;;;;;;25.85;15.65;;;;;;;28.10;39.19;94503.53;5099566;28;20036;-79
2021/08/28 10:51:26;;;;;;;18.60;14.68;;;;;;;28.29;38.96;94500.13;5116770;28;20032;-79
2021/08/28 10:53:53;;;;;;;19.60;14.45;;;;;;;28.56;38.62;94498.38;5118998;28;20051;-79
2021/08/28 10:56:19;;;;;;;25.63;15.25;;;;;;;28.68;38.50;94501.69;5117354;28;20027;-79
2021/08/28 10:58:44;;;;;;;20.05;15.00;;;;;;;28.81;38.20;94501.53;5099662;28;20043;-81
2021/08/28 11:01:10;;;;;;;29.85;16.83;;;;;;;28.78;37.77;94494.19;5112066;28;20020;-80
2021/08/28 11:03:35;;;;;;;21.02;16.55;;;;;;;28.85;38.19;94497.00;5116398;28;20418;-79
2021/08/28 11:06:13;;;;;;;25.85;16.38;;;;;;;28.81;37.90;94498.84;5115101;28;20132;-79
2021/08/28 11:08:54;;;;;;;27.98;16.20;;;;;;;28.90;37.93;94494.84;5116281;28;20058;-79
2021/08/28 11:11:20;;;;;;;26.33;16.83;;;;;;;28.98;37.80;94495.75;5115922;28;20039;-78
2021/08/28 11:14:01;;;;;;;24.88;14.35;;;;;;;29.14;37.80;94484.94;5119458;22;20044;-80
2021/08/28 11:16:41;;;;;;;23.95;14.80;;;;;;;29.27;37.78;94486.28;5128025;22;20119;-80
2021/08/28 11:19:27;;;;;;;21.30;14.75;;;;;;;28.97;38.28;94491.53;5114351;28;20027;-79
2021/08/28 11:21:52;;;;;;;18.65;14.77;;;;;;;29.14;37.92;94475.00;5112440;28;20041;-79
2021/08/28 11:24:19;;;;;;;21.73;14.82;;;;;;;29.41;37.65;94469.66;5098691;28;20031;-79
2021/08/28 11:26:53;;;;;;;27.05;14.10;;;;;;;29.47;37.37;94460.22;5116458;28;20035;-80